sensor_id;sensor_type;location;lat;lon;timestamp;P1;durP1;ratioP1;P2;durP2;ratioP2
22103;SDS011;11218;48.886;9.426;2023-03-01T00:01:46;33.83;;;15.03;;
22103;SDS011;11218;48.886;9.426;2023-03-01T00:04:16;38.33;;;15.47;;
22103;SDS011;11218;48.886;9.426;2023-03-01T00:06:44;40.73;;;16.60;;
22103;SDS011;11218;48.886;9.426;2023-03-01T00:09:13;34.10;;;15.83;;
22103;SDS011;11218;48.886;9.426;2023-03-01T00:11:42;40.70;;;16.70;;
22103;SDS011;11218;48.886;9.426;2023-03-01T00:14:12;40.22;;;16.02;;
22103;SDS011;11218;48.886;9.426;2023-03-01T00:16:42;35.17;;;15.30;;
22103;SDS011;11218;48.886;9.426;2023-03-01T00:19:12;44.97;;;16.90;;
22103;SDS011;11218;48.886;9.426;2023-03-01T00:21:43;36.50;;;15.13;;
22103;SDS011;11218;48.886;9.426;2023-03-01T00:24:11;47.03;;;17.03;;
22103;SDS011;11218;48.886;9.426;2023-03-01T00:26:39;44.00;;;16.50;;
22103;SDS011;11218;48.886;9.426;2023-03-01T00:29:08;36.77;;;15.63;;
22103;SDS011;11218;48.886;9.426;2023-03-01T00:31:36;33.93;;;15.50;;
22103;SDS011;11218;48.886;9.426;2023-03-01T00:34:04;47.07;;;16.60;;
22103;SDS011;11218;48.886;9.426;2023-03-01T00:36:34;32.43;;;14.70;;
22103;SDS011;11218;48.886;9.426;2023-03-01T00:39:07;33.50;;;14.50;;
22103;SDS011;11218;48.886;9.426;2023-03-01T00:41:40;38.40;;;15.87;;
22103;SDS011;11218;48.886;9.426;2023-03-01T00:44:08;40.73;;;16.57;;
22103;SDS011;11218;48.886;9.426;2023-03-01T00:46:36;40.03;;;16.17;;
22103;SDS011;11218;48.886;9.426;2023-03-01T00:49:05;39.80;;;15.33;;
22103;SDS011;11218;48.886;9.426;2023-03-01T00:51:33;39.20;;;15.77;;
22103;SDS011;11218;48.886;9.426;2023-03-01T00:54:01;39.13;;;16.43;;
22103;SDS011;11218;48.886;9.426;2023-03-01T00:56:32;40.37;;;16.23;;
22103;SDS011;11218;48.886;9.426;2023-03-01T00:59:00;42.50;;;17.23;;
22103;SDS011;11218;48.886;9.426;2023-03-01T01:01:29;43.97;;;16.10;;
22103;SDS011;11218;48.886;9.426;2023-03-01T01:03:59;40.83;;;15.83;;
22103;SDS011;11218;48.886;9.426;2023-03-01T01:06:30;45.30;;;16.53;;
22103;SDS011;11218;48.886;9.426;2023-03-01T01:09:00;46.50;;;16.63;;
22103;SDS011;11218;48.886;9.426;2023-03-01T01:11:30;44.93;;;17.10;;
22103;SDS011;11218;48.886;9.426;2023-03-01T01:14:01;31.40;;;15.20;;
22103;SDS011;11218;48.886;9.426;2023-03-01T01:16:30;39.30;;;16.00;;
22103;SDS011;11218;48.886;9.426;2023-03-01T01:18:58;39.10;;;16.97;;
22103;SDS011;11218;48.886;9.426;2023-03-01T01:21:27;38.53;;;15.53;;
22103;SDS011;11218;48.886;9.426;2023-03-01T01:23:56;39.97;;;15.77;;
22103;SDS011;11218;48.886;9.426;2023-03-01T01:26:25;48.00;;;17.60;;
22103;SDS011;11218;48.886;9.426;2023-03-01T01:28:56;44.27;;;17.50;;
22103;SDS011;11218;48.886;9.426;2023-03-01T01:31:25;41.80;;;18.00;;
22103;SDS011;11218;48.886;9.426;2023-03-01T01:33:54;41.37;;;16.83;;
22103;SDS011;11218;48.886;9.426;2023-03-01T01:36:23;47.23;;;18.87;;
22103;SDS011;11218;48.886;9.426;2023-03-01T01:38:51;44.03;;;17.80;;
22103;SDS011;11218;48.886;9.426;2023-03-01T01:41:20;49.33;;;18.63;;
22103;SDS011;11218;48.886;9.426;2023-03-01T01:43:49;43.00;;;16.40;;
22103;SDS011;11218;48.886;9.426;2023-03-01T01:46:40;46.53;;;19.27;;
22103;SDS011;11218;48.886;9.426;2023-03-01T01:49:14;43.30;;;17.20;;
22103;SDS011;11218;48.886;9.426;2023-03-01T01:51:47;42.87;;;18.23;;
22103;SDS011;11218;48.886;9.426;2023-03-01T01:54:18;42.33;;;18.20;;
22103;SDS011;11218;48.886;9.426;2023-03-01T01:56:51;44.93;;;18.43;;
22103;SDS011;11218;48.886;9.426;2023-03-01T01:59:24;41.40;;;17.43;;
22103;SDS011;11218;48.886;9.426;2023-03-01T02:01:52;41.50;;;17.53;;
22103;SDS011;11218;48.886;9.426;2023-03-01T02:04:20;46.90;;;18.00;;
22103;SDS011;11218;48.886;9.426;2023-03-01T02:06:49;45.40;;;18.50;;
22103;SDS011;11218;48.886;9.426;2023-03-01T02:09:23;43.20;;;18.50;;
22103;SDS011;11218;48.886;9.426;2023-03-01T02:11:51;45.03;;;18.73;;
22103;SDS011;11218;48.886;9.426;2023-03-01T02:14:20;44.90;;;18.10;;
22103;SDS011;11218;48.886;9.426;2023-03-01T02:16:50;45.23;;;18.10;;
22103;SDS011;11218;48.886;9.426;2023-03-01T02:19:22;44.53;;;18.13;;
22103;SDS011;11218;48.886;9.426;2023-03-01T02:22:03;50.13;;;18.77;;
22103;SDS011;11218;48.886;9.426;2023-03-01T02:24:42;45.33;;;18.53;;
22103;SDS011;11218;48.886;9.426;2023-03-01T02:27:19;47.33;;;18.30;;
22103;SDS011;11218;48.886;9.426;2023-03-01T02:29:53;46.23;;;19.07;;
22103;SDS011;11218;48.886;9.426;2023-03-01T02:32:23;46.97;;;18.87;;
22103;SDS011;11218;48.886;9.426;2023-03-01T02:34:52;44.03;;;17.87;;
22103;SDS011;11218;48.886;9.426;2023-03-01T02:37:21;54.57;;;19.57;;
22103;SDS011;11218;48.886;9.426;2023-03-01T02:39:53;45.80;;;19.77;;
22103;SDS011;11218;48.886;9.426;2023-03-01T02:42:26;43.77;;;19.33;;
22103;SDS011;11218;48.886;9.426;2023-03-01T02:44:59;48.27;;;19.57;;
22103;SDS011;11218;48.886;9.426;2023-03-01T02:47:27;49.87;;;20.30;;
22103;SDS011;11218;48.886;9.426;2023-03-01T02:49:55;45.20;;;19.33;;
22103;SDS011;11218;48.886;9.426;2023-03-01T02:52:27;44.67;;;19.30;;
22103;SDS011;11218;48.886;9.426;2023-03-01T02:55:07;47.40;;;19.73;;
22103;SDS011;11218;48.886;9.426;2023-03-01T02:57:39;45.17;;;19.10;;
22103;SDS011;11218;48.886;9.426;2023-03-01T03:00:12;49.93;;;19.93;;
22103;SDS011;11218;48.886;9.426;2023-03-01T03:02:45;49.10;;;19.25;;
22103;SDS011;11218;48.886;9.426;2023-03-01T03:05:15;44.10;;;18.93;;
22103;SDS011;11218;48.886;9.426;2023-03-01T03:07:45;40.73;;;18.07;;
22103;SDS011;11218;48.886;9.426;2023-03-01T03:10:16;45.90;;;18.70;;
22103;SDS011;11218;48.886;9.426;2023-03-01T03:12:48;47.03;;;18.97;;
22103;SDS011;11218;48.886;9.426;2023-03-01T03:15:19;42.87;;;18.27;;
22103;SDS011;11218;48.886;9.426;2023-03-01T03:17:48;49.30;;;19.23;;
22103;SDS011;11218;48.886;9.426;2023-03-01T03:20:17;48.93;;;19.47;;
22103;SDS011;11218;48.886;9.426;2023-03-01T03:22:48;48.97;;;19.80;;
22103;SDS011;11218;48.886;9.426;2023-03-01T03:25:17;44.40;;;18.50;;
22103;SDS011;11218;48.886;9.426;2023-03-01T03:27:47;42.70;;;19.27;;
22103;SDS011;11218;48.886;9.426;2023-03-01T03:30:25;46.80;;;19.70;;
22103;SDS011;11218;48.886;9.426;2023-03-01T03:32:54;43.30;;;19.33;;
22103;SDS011;11218;48.886;9.426;2023-03-01T03:35:24;44.07;;;18.60;;
22103;SDS011;11218;48.886;9.426;2023-03-01T03:37:57;49.43;;;20.20;;
22103;SDS011;11218;48.886;9.426;2023-03-01T03:40:29;48.13;;;19.07;;
22103;SDS011;11218;48.886;9.426;2023-03-01T03:42:58;47.80;;;20.03;;
22103;SDS011;11218;48.886;9.426;2023-03-01T03:45:28;45.73;;;19.43;;
22103;SDS011;11218;48.886;9.426;2023-03-01T03:47:59;47.73;;;18.87;;
22103;SDS011;11218;48.886;9.426;2023-03-01T03:50:28;45.77;;;19.10;;
22103;SDS011;11218;48.886;9.426;2023-03-01T03:52:56;44.53;;;18.30;;
22103;SDS011;11218;48.886;9.426;2023-03-01T03:55:24;49.43;;;18.53;;
22103;SDS011;11218;48.886;9.426;2023-03-01T03:57:57;47.80;;;19.63;;
22103;SDS011;11218;48.886;9.426;2023-03-01T04:00:30;49.03;;;19.70;;
22103;SDS011;11218;48.886;9.426;2023-03-01T04:02:58;50.97;;;19.63;;
22103;SDS011;11218;48.886;9.426;2023-03-01T04:05:27;49.60;;;19.53;;
22103;SDS011;11218;48.886;9.426;2023-03-01T04:07:56;45.70;;;18.93;;
22103;SDS011;11218;48.886;9.426;2023-03-01T04:10:34;48.00;;;20.00;;
22103;SDS011;11218;48.886;9.426;2023-03-01T04:13:04;49.40;;;20.10;;
22103;SDS011;11218;48.886;9.426;2023-03-01T04:15:34;45.70;;;20.53;;
22103;SDS011;11218;48.886;9.426;2023-03-01T04:18:03;45.40;;;19.43;;
22103;SDS011;11218;48.886;9.426;2023-03-01T04:20:33;45.07;;;19.80;;
22103;SDS011;11218;48.886;9.426;2023-03-01T04:23:03;45.00;;;19.30;;
22103;SDS011;11218;48.886;9.426;2023-03-01T04:25:40;50.07;;;19.87;;
22103;SDS011;11218;48.886;9.426;2023-03-01T04:28:10;44.30;;;19.33;;
22103;SDS011;11218;48.886;9.426;2023-03-01T04:30:39;48.53;;;19.33;;
22103;SDS011;11218;48.886;9.426;2023-03-01T04:33:08;41.70;;;18.42;;
22103;SDS011;11218;48.886;9.426;2023-03-01T04:35:37;45.90;;;19.43;;
22103;SDS011;11218;48.886;9.426;2023-03-01T04:38:06;44.73;;;19.10;;
22103;SDS011;11218;48.886;9.426;2023-03-01T04:40:36;41.03;;;18.03;;
22103;SDS011;11218;48.886;9.426;2023-03-01T04:43:04;49.77;;;20.17;;
22103;SDS011;11218;48.886;9.426;2023-03-01T04:45:32;50.73;;;20.27;;
22103;SDS011;11218;48.886;9.426;2023-03-01T04:48:03;53.47;;;20.17;;
22103;SDS011;11218;48.886;9.426;2023-03-01T04:50:32;45.67;;;19.73;;
22103;SDS011;11218;48.886;9.426;2023-03-01T04:53:00;44.97;;;19.70;;
22103;SDS011;11218;48.886;9.426;2023-03-01T04:55:28;49.27;;;20.33;;
22103;SDS011;11218;48.886;9.426;2023-03-01T04:57:57;46.70;;;19.57;;
22103;SDS011;11218;48.886;9.426;2023-03-01T05:00:26;48.57;;;20.60;;
22103;SDS011;11218;48.886;9.426;2023-03-01T05:02:54;44.23;;;19.23;;
22103;SDS011;11218;48.886;9.426;2023-03-01T05:05:26;46.57;;;20.27;;
22103;SDS011;11218;48.886;9.426;2023-03-01T05:07:56;51.10;;;20.77;;
22103;SDS011;11218;48.886;9.426;2023-03-01T05:10:26;50.77;;;20.40;;
22103;SDS011;11218;48.886;9.426;2023-03-01T05:12:55;46.23;;;19.63;;
22103;SDS011;11218;48.886;9.426;2023-03-01T05:15:24;44.90;;;18.83;;
22103;SDS011;11218;48.886;9.426;2023-03-01T05:17:54;50.93;;;20.80;;
22103;SDS011;11218;48.886;9.426;2023-03-01T05:20:28;47.57;;;19.70;;
22103;SDS011;11218;48.886;9.426;2023-03-01T05:22:58;45.73;;;20.27;;
22103;SDS011;11218;48.886;9.426;2023-03-01T05:25:32;48.10;;;20.47;;
22103;SDS011;11218;48.886;9.426;2023-03-01T05:28:07;51.57;;;20.80;;
22103;SDS011;11218;48.886;9.426;2023-03-01T05:30:38;51.00;;;20.20;;
22103;SDS011;11218;48.886;9.426;2023-03-01T05:33:07;53.47;;;21.17;;
22103;SDS011;11218;48.886;9.426;2023-03-01T05:35:41;49.83;;;19.67;;
22103;SDS011;11218;48.886;9.426;2023-03-01T05:38:11;49.00;;;20.83;;
22103;SDS011;11218;48.886;9.426;2023-03-01T05:40:40;57.23;;;21.70;;
22103;SDS011;11218;48.886;9.426;2023-03-01T05:43:10;51.93;;;20.83;;
22103;SDS011;11218;48.886;9.426;2023-03-01T05:45:38;53.40;;;20.97;;
22103;SDS011;11218;48.886;9.426;2023-03-01T05:48:11;49.00;;;19.75;;
22103;SDS011;11218;48.886;9.426;2023-03-01T05:50:42;44.90;;;19.77;;
22103;SDS011;11218;48.886;9.426;2023-03-01T05:53:12;51.30;;;20.60;;
22103;SDS011;11218;48.886;9.426;2023-03-01T05:55:42;59.00;;;21.27;;
22103;SDS011;11218;48.886;9.426;2023-03-01T05:58:14;50.80;;;20.57;;
22103;SDS011;11218;48.886;9.426;2023-03-01T06:00:43;40.03;;;19.00;;
22103;SDS011;11218;48.886;9.426;2023-03-01T06:03:12;47.63;;;20.40;;
22103;SDS011;11218;48.886;9.426;2023-03-01T06:05:44;45.27;;;19.40;;
22103;SDS011;11218;48.886;9.426;2023-03-01T06:08:12;58.17;;;20.87;;
22103;SDS011;11218;48.886;9.426;2023-03-01T06:10:40;65.17;;;20.43;;
22103;SDS011;11218;48.886;9.426;2023-03-01T06:13:08;61.90;;;22.90;;
22103;SDS011;11218;48.886;9.426;2023-03-01T06:15:37;48.67;;;20.43;;
22103;SDS011;11218;48.886;9.426;2023-03-01T06:18:05;62.63;;;22.13;;
22103;SDS011;11218;48.886;9.426;2023-03-01T06:20:33;53.87;;;20.57;;
22103;SDS011;11218;48.886;9.426;2023-03-01T06:23:03;57.63;;;22.50;;
22103;SDS011;11218;48.886;9.426;2023-03-01T06:25:31;57.83;;;22.47;;
22103;SDS011;11218;48.886;9.426;2023-03-01T06:27:59;56.15;;;21.20;;
22103;SDS011;11218;48.886;9.426;2023-03-01T06:30:27;58.20;;;22.13;;
22103;SDS011;11218;48.886;9.426;2023-03-01T06:32:55;53.13;;;21.93;;
22103;SDS011;11218;48.886;9.426;2023-03-01T06:35:27;57.50;;;22.23;;
22103;SDS011;11218;48.886;9.426;2023-03-01T06:37:57;62.37;;;22.37;;
22103;SDS011;11218;48.886;9.426;2023-03-01T06:40:28;60.60;;;22.40;;
22103;SDS011;11218;48.886;9.426;2023-03-01T06:42:56;55.70;;;21.45;;
22103;SDS011;11218;48.886;9.426;2023-03-01T06:45:27;51.90;;;20.83;;
22103;SDS011;11218;48.886;9.426;2023-03-01T06:48:02;60.37;;;22.63;;
22103;SDS011;11218;48.886;9.426;2023-03-01T06:50:32;60.33;;;22.30;;
22103;SDS011;11218;48.886;9.426;2023-03-01T06:53:01;60.37;;;21.63;;
22103;SDS011;11218;48.886;9.426;2023-03-01T06:55:31;58.80;;;22.80;;
22103;SDS011;11218;48.886;9.426;2023-03-01T06:57:59;56.60;;;21.50;;
22103;SDS011;11218;48.886;9.426;2023-03-01T07:00:29;59.87;;;22.47;;
22103;SDS011;11218;48.886;9.426;2023-03-01T07:02:58;59.43;;;21.83;;
22103;SDS011;11218;48.886;9.426;2023-03-01T07:05:28;57.53;;;22.47;;
22103;SDS011;11218;48.886;9.426;2023-03-01T07:07:57;59.27;;;21.33;;
22103;SDS011;11218;48.886;9.426;2023-03-01T07:10:25;56.47;;;22.60;;
22103;SDS011;11218;48.886;9.426;2023-03-01T07:12:57;55.50;;;21.67;;
22103;SDS011;11218;48.886;9.426;2023-03-01T07:15:26;59.87;;;23.27;;
22103;SDS011;11218;48.886;9.426;2023-03-01T07:17:55;63.17;;;23.17;;
22103;SDS011;11218;48.886;9.426;2023-03-01T07:20:24;58.83;;;21.60;;
22103;SDS011;11218;48.886;9.426;2023-03-01T07:22:52;68.70;;;24.03;;
22103;SDS011;11218;48.886;9.426;2023-03-01T07:25:21;63.70;;;23.03;;
22103;SDS011;11218;48.886;9.426;2023-03-01T07:27:49;54.73;;;22.93;;
22103;SDS011;11218;48.886;9.426;2023-03-01T07:30:20;56.37;;;21.17;;
22103;SDS011;11218;48.886;9.426;2023-03-01T07:32:49;59.80;;;23.40;;
22103;SDS011;11218;48.886;9.426;2023-03-01T07:35:20;59.50;;;22.57;;
22103;SDS011;11218;48.886;9.426;2023-03-01T07:37:49;57.08;;;21.75;;
22103;SDS011;11218;48.886;9.426;2023-03-01T07:40:17;59.77;;;22.73;;
22103;SDS011;11218;48.886;9.426;2023-03-01T07:42:45;55.50;;;21.97;;
22103;SDS011;11218;48.886;9.426;2023-03-01T07:45:13;55.65;;;21.20;;
22103;SDS011;11218;48.886;9.426;2023-03-01T07:47:43;55.33;;;22.00;;
22103;SDS011;11218;48.886;9.426;2023-03-01T07:50:11;58.53;;;22.23;;
22103;SDS011;11218;48.886;9.426;2023-03-01T07:52:39;56.60;;;22.63;;
22103;SDS011;11218;48.886;9.426;2023-03-01T07:55:08;56.97;;;23.27;;
22103;SDS011;11218;48.886;9.426;2023-03-01T07:57:36;59.97;;;22.80;;
22103;SDS011;11218;48.886;9.426;2023-03-01T08:00:05;52.57;;;20.67;;
22103;SDS011;11218;48.886;9.426;2023-03-01T08:02:34;62.78;;;22.48;;
22103;SDS011;11218;48.886;9.426;2023-03-01T08:05:04;60.88;;;21.92;;
22103;SDS011;11218;48.886;9.426;2023-03-01T08:07:32;57.05;;;22.20;;
22103;SDS011;11218;48.886;9.426;2023-03-01T08:10:01;51.28;;;21.25;;
22103;SDS011;11218;48.886;9.426;2023-03-01T08:12:29;57.78;;;22.23;;
22103;SDS011;11218;48.886;9.426;2023-03-01T08:14:57;54.75;;;21.90;;
22103;SDS011;11218;48.886;9.426;2023-03-01T08:17:25;56.90;;;22.07;;
22103;SDS011;11218;48.886;9.426;2023-03-01T08:19:53;51.17;;;21.20;;
22103;SDS011;11218;48.886;9.426;2023-03-01T08:22:23;52.50;;;21.63;;
22103;SDS011;11218;48.886;9.426;2023-03-01T08:24:51;57.35;;;21.80;;
22103;SDS011;11218;48.886;9.426;2023-03-01T08:27:20;52.17;;;21.30;;
22103;SDS011;11218;48.886;9.426;2023-03-01T08:29:51;53.47;;;21.00;;
22103;SDS011;11218;48.886;9.426;2023-03-01T08:32:19;54.50;;;21.65;;
22103;SDS011;11218;48.886;9.426;2023-03-01T08:34:47;53.15;;;21.95;;
22103;SDS011;11218;48.886;9.426;2023-03-01T08:37:15;52.53;;;21.83;;
22103;SDS011;11218;48.886;9.426;2023-03-01T08:39:44;60.95;;;23.48;;
22103;SDS011;11218;48.886;9.426;2023-03-01T08:42:12;62.55;;;22.38;;
22103;SDS011;11218;48.886;9.426;2023-03-01T08:44:40;57.30;;;21.27;;
22103;SDS011;11218;48.886;9.426;2023-03-01T08:47:11;61.13;;;22.77;;
22103;SDS011;11218;48.886;9.426;2023-03-01T08:49:40;50.10;;;21.00;;
22103;SDS011;11218;48.886;9.426;2023-03-01T08:52:08;51.95;;;21.13;;
22103;SDS011;11218;48.886;9.426;2023-03-01T08:54:36;55.40;;;21.58;;
22103;SDS011;11218;48.886;9.426;2023-03-01T08:57:06;54.58;;;21.77;;
22103;SDS011;11218;48.886;9.426;2023-03-01T08:59:35;53.80;;;21.27;;
22103;SDS011;11218;48.886;9.426;2023-03-01T09:02:04;50.95;;;21.58;;
22103;SDS011;11218;48.886;9.426;2023-03-01T09:04:33;56.47;;;21.67;;
22103;SDS011;11218;48.886;9.426;2023-03-01T09:07:01;55.92;;;22.10;;
22103;SDS011;11218;48.886;9.426;2023-03-01T09:09:29;61.67;;;22.20;;
22103;SDS011;11218;48.886;9.426;2023-03-01T09:11:57;58.17;;;22.98;;
22103;SDS011;11218;48.886;9.426;2023-03-01T09:14:27;50.47;;;20.58;;
22103;SDS011;11218;48.886;9.426;2023-03-01T09:16:55;68.07;;;23.52;;
22103;SDS011;11218;48.886;9.426;2023-03-01T09:19:23;64.13;;;23.25;;
22103;SDS011;11218;48.886;9.426;2023-03-01T09:21:52;55.75;;;22.08;;
22103;SDS011;11218;48.886;9.426;2023-03-01T09:24:23;56.35;;;21.80;;
22103;SDS011;11218;48.886;9.426;2023-03-01T09:26:53;55.58;;;21.52;;
22103;SDS011;11218;48.886;9.426;2023-03-01T09:29:22;58.67;;;23.10;;
22103;SDS011;11218;48.886;9.426;2023-03-01T09:31:51;63.60;;;22.75;;
22103;SDS011;11218;48.886;9.426;2023-03-01T09:34:21;60.08;;;22.33;;
22103;SDS011;11218;48.886;9.426;2023-03-01T09:36:50;58.83;;;21.10;;
22103;SDS011;11218;48.886;9.426;2023-03-01T09:39:19;64.65;;;23.45;;
22103;SDS011;11218;48.886;9.426;2023-03-01T09:41:49;52.95;;;20.80;;
22103;SDS011;11218;48.886;9.426;2023-03-01T09:44:27;56.25;;;22.13;;
22103;SDS011;11218;48.886;9.426;2023-03-01T09:46:59;52.22;;;21.17;;
22103;SDS011;11218;48.886;9.426;2023-03-01T09:49:29;48.25;;;19.48;;
22103;SDS011;11218;48.886;9.426;2023-03-01T09:52:03;56.85;;;21.73;;
22103;SDS011;11218;48.886;9.426;2023-03-01T09:54:40;62.90;;;21.88;;
22103;SDS011;11218;48.886;9.426;2023-03-01T09:57:14;50.25;;;20.02;;
22103;SDS011;11218;48.886;9.426;2023-03-01T09:59:49;45.70;;;19.80;;
22103;SDS011;11218;48.886;9.426;2023-03-01T10:02:30;52.33;;;20.15;;
22103;SDS011;11218;48.886;9.426;2023-03-01T10:05:12;61.97;;;22.35;;
22103;SDS011;11218;48.886;9.426;2023-03-01T10:07:52;67.32;;;22.83;;
22103;SDS011;11218;48.886;9.426;2023-03-01T10:10:31;41.13;;;19.50;;
22103;SDS011;11218;48.886;9.426;2023-03-01T10:13:02;46.80;;;19.80;;
22103;SDS011;11218;48.886;9.426;2023-03-01T10:15:37;44.88;;;19.98;;
22103;SDS011;11218;48.886;9.426;2023-03-01T10:18:12;46.97;;;20.02;;
22103;SDS011;11218;48.886;9.426;2023-03-01T10:20:46;54.65;;;21.38;;
22103;SDS011;11218;48.886;9.426;2023-03-01T10:23:22;48.78;;;19.65;;
22103;SDS011;11218;48.886;9.426;2023-03-01T10:26:01;44.42;;;19.17;;
22103;SDS011;11218;48.886;9.426;2023-03-01T10:28:46;60.83;;;21.23;;
22103;SDS011;11218;48.886;9.426;2023-03-01T10:31:22;58.65;;;20.67;;
22103;SDS011;11218;48.886;9.426;2023-03-01T10:33:57;68.97;;;21.67;;
22103;SDS011;11218;48.886;9.426;2023-03-01T10:36:28;55.00;;;20.65;;
22103;SDS011;11218;48.886;9.426;2023-03-01T10:39:02;60.08;;;21.27;;
22103;SDS011;11218;48.886;9.426;2023-03-01T10:41:44;35.28;;;18.40;;
22103;SDS011;11218;48.886;9.426;2023-03-01T10:47:19;61.13;;;21.40;;
22103;SDS011;11218;48.886;9.426;2023-03-01T10:49:54;43.40;;;18.50;;
22103;SDS011;11218;48.886;9.426;2023-03-01T10:52:27;61.13;;;21.15;;
22103;SDS011;11218;48.886;9.426;2023-03-01T10:54:58;54.30;;;20.50;;
22103;SDS011;11218;48.886;9.426;2023-03-01T10:57:31;51.60;;;19.63;;
22103;SDS011;11218;48.886;9.426;2023-03-01T11:03:09;56.53;;;20.25;;
22103;SDS011;11218;48.886;9.426;2023-03-01T11:05:51;62.88;;;21.10;;
22103;SDS011;11218;48.886;9.426;2023-03-01T11:08:35;46.13;;;18.63;;
22103;SDS011;11218;48.886;9.426;2023-03-01T11:11:06;51.17;;;19.95;;
22103;SDS011;11218;48.886;9.426;2023-03-01T11:13:47;57.72;;;20.23;;
22103;SDS011;11218;48.886;9.426;2023-03-01T11:16:23;46.08;;;18.95;;
22103;SDS011;11218;48.886;9.426;2023-03-01T11:18:57;39.30;;;18.35;;
22103;SDS011;11218;48.886;9.426;2023-03-01T11:21:33;42.85;;;18.80;;
22103;SDS011;11218;48.886;9.426;2023-03-01T11:24:04;48.67;;;18.73;;
22103;SDS011;11218;48.886;9.426;2023-03-01T11:26:38;47.17;;;19.35;;
22103;SDS011;11218;48.886;9.426;2023-03-01T11:29:12;47.33;;;19.13;;
22103;SDS011;11218;48.886;9.426;2023-03-01T11:31:45;47.10;;;18.65;;
22103;SDS011;11218;48.886;9.426;2023-03-01T11:34:23;41.53;;;18.00;;
22103;SDS011;11218;48.886;9.426;2023-03-01T11:37:03;53.75;;;19.30;;
22103;SDS011;11218;48.886;9.426;2023-03-01T11:39:39;43.15;;;18.77;;
22103;SDS011;11218;48.886;9.426;2023-03-01T11:42:11;42.10;;;17.70;;
22103;SDS011;11218;48.886;9.426;2023-03-01T11:44:44;46.55;;;18.23;;
22103;SDS011;11218;48.886;9.426;2023-03-01T11:47:21;46.50;;;19.17;;
22103;SDS011;11218;48.886;9.426;2023-03-01T11:50:08;43.05;;;17.25;;
22103;SDS011;11218;48.886;9.426;2023-03-01T11:52:48;43.83;;;17.35;;
22103;SDS011;11218;48.886;9.426;2023-03-01T11:55:33;41.15;;;17.05;;
22103;SDS011;11218;48.886;9.426;2023-03-01T11:58:27;44.75;;;17.10;;
22103;SDS011;11218;48.886;9.426;2023-03-01T12:01:20;41.75;;;17.23;;
22103;SDS011;11218;48.886;9.426;2023-03-01T12:04:30;42.47;;;17.33;;
22103;SDS011;11218;48.886;9.426;2023-03-01T12:07:22;41.05;;;16.80;;
22103;SDS011;11218;48.886;9.426;2023-03-01T12:10:06;41.92;;;16.83;;
22103;SDS011;11218;48.886;9.426;2023-03-01T12:12:52;47.22;;;18.70;;
22103;SDS011;11218;48.886;9.426;2023-03-01T12:15:50;40.00;;;16.73;;
22103;SDS011;11218;48.886;9.426;2023-03-01T12:18:43;40.83;;;16.77;;
22103;SDS011;11218;48.886;9.426;2023-03-01T12:21:30;39.85;;;17.05;;
22103;SDS011;11218;48.886;9.426;2023-03-01T12:24:21;43.05;;;16.83;;
22103;SDS011;11218;48.886;9.426;2023-03-01T12:27:13;42.03;;;17.45;;
22103;SDS011;11218;48.886;9.426;2023-03-01T12:29:59;41.33;;;17.00;;
22103;SDS011;11218;48.886;9.426;2023-03-01T12:32:43;38.22;;;16.45;;
22103;SDS011;11218;48.886;9.426;2023-03-01T12:38:37;41.90;;;17.40;;
22103;SDS011;11218;48.886;9.426;2023-03-01T12:41:21;37.00;;;16.63;;
22103;SDS011;11218;48.886;9.426;2023-03-01T12:44:14;34.70;;;16.15;;
22103;SDS011;11218;48.886;9.426;2023-03-01T12:46:54;35.60;;;15.98;;
22103;SDS011;11218;48.886;9.426;2023-03-01T12:49:35;43.17;;;17.02;;
22103;SDS011;11218;48.886;9.426;2023-03-01T12:52:09;40.08;;;17.42;;
22103;SDS011;11218;48.886;9.426;2023-03-01T12:54:41;40.00;;;17.33;;
22103;SDS011;11218;48.886;9.426;2023-03-01T12:57:12;42.95;;;17.52;;
22103;SDS011;11218;48.886;9.426;2023-03-01T12:59:50;46.22;;;18.83;;
22103;SDS011;11218;48.886;9.426;2023-03-01T13:02:30;43.05;;;17.73;;
22103;SDS011;11218;48.886;9.426;2023-03-01T13:05:07;42.25;;;18.58;;
22103;SDS011;11218;48.886;9.426;2023-03-01T13:07:54;47.75;;;19.08;;
22103;SDS011;11218;48.886;9.426;2023-03-01T13:10:30;50.78;;;19.65;;
22103;SDS011;11218;48.886;9.426;2023-03-01T13:13:08;42.08;;;18.52;;
22103;SDS011;11218;48.886;9.426;2023-03-01T13:15:43;38.55;;;18.20;;
22103;SDS011;11218;48.886;9.426;2023-03-01T13:18:27;44.85;;;18.98;;
22103;SDS011;11218;48.886;9.426;2023-03-01T13:21:01;51.25;;;19.73;;
22103;SDS011;11218;48.886;9.426;2023-03-01T13:23:33;51.30;;;19.95;;
22103;SDS011;11218;48.886;9.426;2023-03-01T13:26:04;54.67;;;20.10;;
22103;SDS011;11218;48.886;9.426;2023-03-01T13:28:39;57.50;;;21.38;;
22103;SDS011;11218;48.886;9.426;2023-03-01T13:34:45;61.55;;;21.90;;
22103;SDS011;11218;48.886;9.426;2023-03-01T13:37:28;52.80;;;20.58;;
22103;SDS011;11218;48.886;9.426;2023-03-01T13:39:58;51.70;;;20.58;;
22103;SDS011;11218;48.886;9.426;2023-03-01T13:42:41;52.72;;;20.42;;
22103;SDS011;11218;48.886;9.426;2023-03-01T13:45:31;44.47;;;19.63;;
22103;SDS011;11218;48.886;9.426;2023-03-01T13:48:09;42.25;;;18.95;;
22103;SDS011;11218;48.886;9.426;2023-03-01T13:50:47;46.50;;;19.63;;
22103;SDS011;11218;48.886;9.426;2023-03-01T13:53:19;43.47;;;19.33;;
22103;SDS011;11218;48.886;9.426;2023-03-01T13:55:50;56.40;;;21.95;;
22103;SDS011;11218;48.886;9.426;2023-03-01T13:58:27;55.15;;;21.73;;
22103;SDS011;11218;48.886;9.426;2023-03-01T14:00:57;54.03;;;21.83;;
22103;SDS011;11218;48.886;9.426;2023-03-01T14:03:28;52.15;;;21.45;;
22103;SDS011;11218;48.886;9.426;2023-03-01T14:06:01;50.92;;;19.65;;
22103;SDS011;11218;48.886;9.426;2023-03-01T14:08:42;45.90;;;19.50;;
22103;SDS011;11218;48.886;9.426;2023-03-01T14:14:29;50.33;;;20.00;;
22103;SDS011;11218;48.886;9.426;2023-03-01T14:17:22;56.75;;;21.70;;
22103;SDS011;11218;48.886;9.426;2023-03-01T14:20:10;47.47;;;20.65;;
22103;SDS011;11218;48.886;9.426;2023-03-01T14:22:43;50.40;;;20.92;;
22103;SDS011;11218;48.886;9.426;2023-03-01T14:25:17;49.10;;;20.02;;
22103;SDS011;11218;48.886;9.426;2023-03-01T14:27:56;43.60;;;20.20;;
22103;SDS011;11218;48.886;9.426;2023-03-01T14:30:31;51.08;;;21.52;;
22103;SDS011;11218;48.886;9.426;2023-03-01T14:33:03;48.38;;;19.90;;
22103;SDS011;11218;48.886;9.426;2023-03-01T14:35:33;51.97;;;21.10;;
22103;SDS011;11218;48.886;9.426;2023-03-01T14:38:05;58.75;;;21.92;;
22103;SDS011;11218;48.886;9.426;2023-03-01T14:40:34;52.38;;;21.25;;
22103;SDS011;11218;48.886;9.426;2023-03-01T14:43:08;51.08;;;20.45;;
22103;SDS011;11218;48.886;9.426;2023-03-01T14:45:38;53.72;;;21.33;;
22103;SDS011;11218;48.886;9.426;2023-03-01T14:48:06;51.63;;;21.23;;
22103;SDS011;11218;48.886;9.426;2023-03-01T14:50:35;50.15;;;20.98;;
22103;SDS011;11218;48.886;9.426;2023-03-01T14:53:15;48.40;;;20.35;;
22103;SDS011;11218;48.886;9.426;2023-03-01T14:55:46;53.45;;;21.70;;
22103;SDS011;11218;48.886;9.426;2023-03-01T14:58:18;57.80;;;21.60;;
22103;SDS011;11218;48.886;9.426;2023-03-01T15:00:50;46.60;;;20.30;;
22103;SDS011;11218;48.886;9.426;2023-03-01T15:03:24;55.47;;;21.52;;
22103;SDS011;11218;48.886;9.426;2023-03-01T15:05:55;48.50;;;20.73;;
22103;SDS011;11218;48.886;9.426;2023-03-01T15:08:24;63.00;;;22.17;;